Terminal Aerodrome Forecast
Issued by NWS

Home | Current Version | Previous Version | Text Only | Print | Product List | Glossary Off
Versions: 1 2 3 4 5 6 7 8 9 10 11 12 13 14 15 16 17 18 19

000
FTUS43 KBIS 230753 AAB
TAFMOT
TAF AMD
KMOT 230753Z 2308/2406 13012KT P6SM VCTS SCT030 OVC090CB
      TEMPO 2308/2309 20025G35KT -TSRA OVC045CB
     FM231500 17010G21KT P6SM BKN025
     FM231700 23011KT P6SM BKN070
     FM232100 27016G22KT P6SM FEW250
     FM240300 29010KT P6SM FEW200=

USA.gov is the U.S. government's official web portal to all federal, state and local government web resources and services.